createdAt,value
2018-07-13T00:00:43.639Z,19.60
2018-07-13T00:03:12.681Z,19.60
2018-07-13T00:05:41.708Z,19.60
2018-07-13T00:08:10.783Z,19.50
2018-07-13T00:10:39.890Z,19.50
2018-07-13T00:13:09.157Z,19.40
2018-07-13T00:15:43.503Z,19.30
2018-07-13T00:18:12.784Z,19.20
2018-07-13T00:20:42.102Z,19.10
2018-07-13T00:23:11.128Z,19.00
2018-07-13T00:25:40.467Z,19.00
2018-07-13T00:28:09.621Z,19.00
2018-07-13T00:30:39.276Z,19.00
2018-07-13T00:33:09.277Z,19.00
2018-07-13T00:38:08.093Z,18.90
2018-07-13T00:40:37.281Z,18.90
2018-07-13T00:43:06.615Z,18.90
2018-07-13T00:45:35.744Z,18.80
2018-07-13T00:48:05.552Z,18.80
2018-07-13T00:50:35.115Z,18.80
2018-07-13T00:53:04.725Z,18.80
2018-07-13T00:55:34.052Z,18.80
2018-07-13T00:58:03.163Z,18.80
2018-07-13T01:00:33.579Z,18.80
2018-07-13T01:03:04.508Z,18.80
2018-07-13T01:05:34.058Z,18.80
2018-07-13T01:08:03.255Z,18.80
2018-07-13T01:10:32.754Z,18.70
2018-07-13T01:13:02.048Z,18.70
2018-07-13T01:15:31.453Z,18.60
2018-07-13T01:18:01.515Z,18.60
2018-07-13T01:20:30.452Z,18.60
2018-07-13T01:22:59.600Z,18.60
2018-07-13T01:27:57.871Z,18.50
2018-07-13T01:30:27.187Z,18.50
2018-07-13T01:32:56.255Z,18.50
2018-07-13T01:35:25.785Z,18.40
2018-07-13T01:37:54.963Z,18.40
2018-07-13T01:40:24.176Z,18.40
2018-07-13T01:42:53.467Z,18.30
2018-07-13T01:45:22.988Z,18.30
2018-07-13T01:47:52.864Z,18.20
2018-07-13T01:50:22.383Z,18.20
2018-07-13T01:52:51.724Z,18.10
2018-07-13T01:55:20.549Z,18.10
2018-07-13T01:57:49.578Z,18.10
2018-07-13T02:00:19.494Z,18.10
2018-07-13T02:02:48.992Z,18.10
2018-07-13T02:05:19.898Z,18.10
2018-07-13T02:07:48.835Z,18.00
2018-07-13T02:10:17.988Z,18.00
2018-07-13T02:12:47.452Z,18.00
2018-07-13T02:15:16.580Z,18.00
2018-07-13T02:17:45.670Z,17.90
2018-07-13T02:22:43.449Z,17.80
2018-07-13T02:30:10.042Z,17.70
2018-07-13T02:32:39.038Z,17.70
2018-07-13T02:35:07.831Z,17.60
2018-07-13T02:37:36.920Z,17.60
2018-07-13T02:40:06.593Z,17.60
2018-07-13T02:42:35.964Z,17.60
2018-07-13T02:45:04.884Z,17.60
2018-07-13T02:47:33.900Z,17.60
2018-07-13T02:50:03.268Z,17.60
2018-07-13T02:52:32.457Z,17.60
2018-07-13T02:55:02.391Z,17.50
2018-07-13T02:57:31.806Z,17.50
2018-07-13T03:00:02.039Z,17.50
2018-07-13T03:02:31.706Z,17.50
2018-07-13T03:05:00.688Z,17.50
2018-07-13T03:07:29.631Z,17.50
2018-07-13T03:09:58.550Z,17.50
2018-07-13T03:12:26.800Z,17.50
2018-07-13T03:14:56.257Z,17.50
2018-07-13T03:17:26.440Z,17.50
2018-07-13T03:19:56.724Z,17.50
2018-07-13T03:22:26.601Z,17.40
2018-07-13T03:24:55.718Z,17.40
2018-07-13T03:27:25.410Z,17.40
2018-07-13T03:29:54.683Z,17.40
2018-07-13T03:32:24.126Z,17.40
2018-07-13T03:34:53.487Z,17.30
2018-07-13T03:37:21.722Z,17.20
2018-07-13T03:39:50.516Z,17.30
2018-07-13T03:42:19.488Z,17.20
2018-07-13T03:44:48.832Z,17.20
2018-07-13T03:47:18.057Z,17.10
2018-07-13T03:49:47.420Z,17.20
2018-07-13T03:52:16.609Z,17.20
2018-07-13T03:54:46.003Z,17.20
2018-07-13T03:57:15.097Z,17.20
2018-07-13T03:59:44.694Z,17.20
2018-07-13T04:02:13.117Z,17.20
2018-07-13T04:04:42.184Z,17.20
2018-07-13T04:07:11.609Z,17.20
2018-07-13T04:09:40.736Z,17.20
2018-07-13T04:12:09.701Z,17.30
2018-07-13T04:14:39.174Z,17.20
2018-07-13T04:17:08.388Z,17.20
2018-07-13T04:19:37.483Z,17.20
2018-07-13T04:22:06.852Z,17.10
2018-07-13T04:24:36.683Z,17.20
2018-07-13T04:27:05.707Z,17.20
2018-07-13T04:29:36.231Z,17.20
2018-07-13T04:32:05.343Z,17.20
2018-07-13T04:34:34.600Z,17.20
2018-07-13T04:37:04.241Z,17.30
2018-07-13T04:39:33.570Z,17.30
2018-07-13T04:42:02.652Z,17.30
2018-07-13T04:44:32.042Z,17.30
2018-07-13T04:47:02.273Z,17.30
2018-07-13T04:49:32.001Z,17.30
2018-07-13T04:52:02.064Z,17.30
2018-07-13T04:54:31.964Z,17.30
2018-07-13T04:59:30.784Z,17.30
2018-07-13T05:02:00.365Z,17.30
2018-07-13T05:04:29.725Z,17.40
2018-07-13T05:06:58.811Z,17.40
2018-07-13T05:09:28.938Z,17.40
2018-07-13T05:11:58.995Z,17.50
2018-07-13T05:14:28.340Z,17.50
2018-07-13T05:16:57.229Z,17.50
2018-07-13T05:19:26.834Z,17.60
2018-07-13T05:21:56.799Z,17.60
2018-07-13T05:24:26.168Z,17.60
2018-07-13T05:26:56.181Z,17.70
2018-07-13T05:29:26.262Z,17.70
2018-07-13T05:31:56.441Z,17.80
2018-07-13T05:34:26.411Z,17.90
2018-07-13T05:36:55.745Z,18.00
2018-07-13T05:39:25.028Z,18.00
2018-07-13T05:41:54.699Z,18.00
2018-07-13T05:44:24.405Z,18.00
2018-07-13T05:49:23.151Z,18.10
2018-07-13T05:51:52.464Z,18.20
2018-07-13T05:54:21.714Z,18.30
2018-07-13T05:56:51.204Z,18.40
2018-07-13T05:59:20.982Z,18.50
2018-07-13T06:01:50.539Z,18.60
2018-07-13T06:04:19.726Z,18.70
2018-07-13T06:06:49.247Z,18.70
2018-07-13T06:09:18.961Z,18.90
2018-07-13T06:11:48.891Z,19.00
2018-07-13T06:16:47.222Z,19.40
2018-07-13T06:19:16.385Z,19.60
2018-07-13T06:24:14.838Z,19.80
2018-07-13T06:26:44.562Z,19.90
2018-07-13T06:29:14.140Z,20.00
2018-07-13T06:31:44.182Z,20.10
2018-07-13T06:34:13.499Z,20.20
2018-07-13T06:36:43.298Z,20.20
2018-07-13T06:39:13.338Z,20.20
2018-07-13T06:41:43.358Z,20.20
2018-07-13T06:44:12.857Z,20.30
2018-07-13T06:46:45.552Z,20.30
2018-07-13T06:49:16.677Z,20.40
2018-07-13T06:51:45.942Z,20.60
2018-07-13T06:54:15.076Z,20.70
2018-07-13T06:56:44.330Z,20.90
2018-07-13T06:59:16.912Z,21.00
2018-07-13T07:01:47.128Z,21.00
2018-07-13T07:04:26.014Z,21.00
2018-07-13T07:06:56.599Z,20.90
2018-07-13T07:09:27.504Z,20.70
2018-07-13T07:13:08.875Z,20.60
2018-07-13T07:15:39.029Z,20.50
2018-07-13T07:18:08.351Z,20.60
2018-07-13T07:20:37.768Z,20.60
2018-07-13T07:23:07.257Z,20.60
2018-07-13T07:25:36.601Z,20.50
2018-07-13T07:33:21.276Z,20.40
2018-07-13T07:35:51.480Z,20.30
2018-07-13T07:38:20.754Z,20.20
2018-07-13T07:43:19.602Z,20.40
2018-07-13T07:45:49.909Z,20.40
2018-07-13T07:48:19.227Z,20.40
2018-07-13T07:50:48.319Z,20.60
2018-07-13T07:53:17.558Z,20.70
2018-07-13T07:55:46.514Z,20.70
2018-07-13T07:58:15.768Z,20.80
2018-07-13T08:00:44.813Z,20.90
2018-07-13T08:03:14.343Z,21.00
2018-07-13T08:05:44.078Z,21.10
2018-07-13T08:08:13.452Z,21.20
2018-07-13T08:10:42.691Z,21.20
2018-07-13T08:13:11.838Z,21.30
2018-07-13T08:15:41.134Z,21.30
2018-07-13T08:18:10.724Z,21.30
2018-07-13T08:20:45.513Z,21.40
2018-07-13T08:23:14.974Z,21.40
2018-07-13T08:25:46.578Z,21.30
2018-07-13T08:28:16.912Z,21.30
2018-07-13T08:33:16.846Z,21.40
2018-07-13T08:35:48.247Z,21.60
2018-07-13T08:38:17.304Z,21.70
2018-07-13T08:40:47.093Z,21.80
2018-07-13T08:43:17.090Z,21.90
2018-07-13T08:45:46.179Z,21.90
2018-07-13T08:48:16.051Z,21.90
2018-07-13T08:50:45.845Z,22.00
2018-07-13T08:53:15.736Z,22.10
2018-07-13T08:55:45.123Z,22.20
2018-07-13T08:58:14.540Z,22.30
2018-07-13T09:00:43.783Z,22.40
2018-07-13T09:03:12.842Z,22.50
2018-07-13T09:05:42.062Z,22.40
2018-07-13T09:08:11.320Z,22.40
2018-07-13T09:13:09.974Z,22.50
2018-07-13T09:15:39.634Z,22.50
2018-07-13T09:18:08.778Z,22.60
2018-07-13T09:20:37.938Z,22.80
2018-07-13T09:23:07.769Z,22.80
2018-07-13T09:25:36.646Z,22.80
2018-07-13T09:28:06.470Z,22.90
2018-07-13T09:30:35.583Z,22.90
2018-07-13T09:33:04.827Z,23.00
2018-07-13T09:35:34.262Z,23.10
2018-07-13T09:38:03.966Z,23.10
2018-07-13T09:40:33.459Z,23.10
2018-07-13T09:43:02.618Z,23.20
2018-07-13T09:45:32.218Z,23.20
2018-07-13T09:50:30.724Z,23.30
2018-07-13T09:53:00.051Z,23.40
2018-07-13T09:55:29.387Z,23.50
2018-07-13T09:57:59.289Z,23.60
2018-07-13T10:00:34.163Z,23.60
2018-07-13T10:03:03.954Z,23.60
2018-07-13T10:05:33.683Z,23.70
2018-07-13T10:08:03.264Z,23.80
2018-07-13T10:10:33.022Z,23.90
2018-07-13T10:13:02.256Z,23.90
2018-07-13T10:15:32.729Z,23.90
2018-07-13T10:18:02.049Z,23.90
2018-07-13T10:23:00.512Z,24.10
2018-07-13T10:25:31.477Z,24.20
2018-07-13T10:28:00.784Z,24.40
2018-07-13T10:30:31.095Z,24.50
2018-07-13T10:33:00.318Z,24.40
2018-07-13T10:35:29.561Z,24.50
2018-07-13T10:37:58.534Z,24.60
2018-07-13T10:40:27.866Z,24.70
2018-07-13T10:42:57.468Z,24.70
2018-07-13T10:45:26.613Z,24.80
2018-07-13T10:48:06.603Z,24.70
2018-07-13T10:50:37.038Z,24.80
2018-07-13T10:53:11.811Z,24.90
2018-07-13T10:55:41.993Z,25.00
2018-07-13T10:58:12.255Z,25.10
2018-07-13T11:00:47.164Z,25.20
2018-07-13T11:03:17.523Z,25.20
2018-07-13T11:05:47.477Z,25.40
2018-07-13T11:08:17.778Z,25.50
2018-07-13T11:10:49.556Z,25.60
2018-07-13T11:13:19.414Z,25.80
2018-07-13T11:15:51.378Z,25.80
2018-07-13T11:18:21.733Z,25.80
2018-07-13T11:20:52.170Z,25.80
2018-07-13T11:23:22.760Z,26.00
2018-07-13T11:25:53.604Z,26.10
2018-07-13T11:28:23.783Z,26.20
2018-07-13T11:30:56.912Z,26.20
2018-07-13T11:33:27.426Z,26.40
2018-07-13T11:35:57.500Z,26.40
2018-07-13T11:38:28.727Z,26.50
2018-07-13T11:43:29.674Z,26.70
2018-07-13T11:45:59.739Z,26.70
2018-07-13T11:48:29.071Z,26.80
2018-07-13T11:51:00.255Z,26.90
2018-07-13T11:53:30.509Z,26.90
2018-07-13T11:55:59.585Z,26.90
2018-07-13T11:58:30.478Z,26.90
2018-07-13T12:00:59.698Z,27.00
2018-07-13T12:03:28.935Z,27.00
2018-07-13T12:05:59.232Z,27.10
2018-07-13T12:10:58.879Z,27.50
2018-07-13T12:13:27.902Z,27.70
2018-07-13T12:15:57.852Z,27.90
2018-07-13T12:18:27.920Z,27.80
2018-07-13T12:20:57.767Z,27.80
2018-07-13T12:23:27.624Z,27.90
2018-07-13T12:28:26.916Z,28.10
2018-07-13T12:30:57.633Z,28.30
2018-07-13T12:33:26.872Z,28.40
2018-07-13T12:35:57.062Z,28.50
2018-07-13T12:38:26.514Z,28.50
2018-07-13T12:40:56.370Z,28.60
2018-07-13T12:43:26.234Z,28.80
2018-07-13T12:45:56.643Z,28.90
2018-07-13T12:48:27.238Z,29.00
2018-07-13T12:50:57.459Z,29.10
2018-07-13T12:53:26.030Z,29.20
2018-07-13T12:55:56.564Z,29.30
2018-07-13T12:58:25.941Z,29.50
2018-07-13T13:00:55.779Z,29.70
2018-07-13T13:03:26.163Z,30.00
2018-07-13T13:05:56.783Z,30.00
2018-07-13T13:08:26.299Z,30.00
2018-07-13T13:10:57.176Z,30.10
2018-07-13T13:13:25.967Z,30.20
2018-07-13T13:16:00.196Z,30.20
2018-07-13T13:18:29.724Z,30.20
2018-07-13T13:20:58.376Z,30.10
2018-07-13T13:23:29.409Z,30.20
2018-07-13T13:25:58.951Z,30.30
2018-07-13T13:28:27.583Z,30.50
2018-07-13T13:30:56.456Z,30.60
2018-07-13T13:33:24.926Z,30.80
2018-07-13T13:35:54.146Z,31.10
2018-07-13T13:38:23.437Z,31.40
2018-07-13T13:40:52.209Z,31.70
2018-07-13T13:43:20.519Z,32.10
2018-07-13T13:45:50.265Z,32.50
2018-07-13T13:48:19.005Z,32.60
2018-07-13T13:50:50.915Z,32.40
2018-07-13T13:53:23.385Z,31.90
2018-07-13T13:55:53.607Z,32.20
2018-07-13T13:58:23.957Z,32.40
2018-07-13T14:00:52.426Z,32.30
2018-07-13T14:03:22.195Z,32.00
2018-07-13T14:05:51.103Z,31.80
2018-07-13T14:08:21.138Z,31.50
2018-07-13T14:10:50.922Z,31.30
2018-07-13T14:13:19.705Z,31.10
2018-07-13T14:15:49.684Z,31.00
2018-07-13T14:18:18.634Z,30.90
2018-07-13T14:20:46.957Z,30.80
2018-07-13T14:23:15.425Z,31.40
2018-07-13T14:25:45.312Z,33.60
2018-07-13T14:30:43.515Z,40.80
2018-07-13T14:33:14.076Z,43.90
2018-07-13T14:35:51.050Z,44.50
2018-07-13T14:38:19.971Z,42.40
2018-07-13T14:40:49.079Z,40.30
2018-07-13T14:43:19.031Z,38.80
2018-07-13T14:45:47.307Z,37.40
2018-07-13T14:48:15.559Z,38.70
2018-07-13T14:50:45.256Z,41.80
2018-07-13T14:53:15.353Z,44.60
2018-07-13T14:55:43.632Z,46.60
2018-07-13T14:58:15.431Z,48.30
2018-07-13T15:00:44.600Z,49.90
2018-07-13T15:03:14.067Z,50.90
2018-07-13T15:05:45.600Z,51.80
2018-07-13T15:08:14.928Z,51.80
2018-07-13T15:10:46.682Z,51.60
2018-07-13T15:13:16.211Z,51.90
2018-07-13T15:15:44.521Z,52.60
2018-07-13T15:18:13.386Z,53.30
2018-07-13T15:20:43.255Z,53.80
2018-07-13T15:23:12.708Z,53.20
2018-07-13T15:25:40.968Z,51.90
2018-07-13T15:28:09.827Z,49.10
2018-07-13T15:30:42.159Z,46.40
2018-07-13T15:33:12.235Z,44.10
2018-07-13T15:35:42.146Z,44.50
2018-07-13T15:38:11.886Z,44.50
2018-07-13T15:40:40.980Z,44.60
2018-07-13T15:43:10.452Z,43.10
2018-07-13T15:48:07.352Z,39.70
2018-07-13T15:50:36.223Z,38.60
2018-07-13T15:53:05.147Z,37.50
2018-07-13T15:55:38.786Z,36.70
2018-07-13T15:58:07.515Z,36.00
2018-07-13T16:00:35.731Z,35.50
2018-07-13T16:03:04.267Z,35.00
2018-07-13T16:05:34.356Z,34.50
2018-07-13T16:08:02.584Z,34.20
2018-07-13T16:10:34.801Z,34.10
2018-07-13T16:13:03.086Z,34.00
2018-07-13T16:20:31.181Z,34.60
2018-07-13T16:23:01.639Z,34.80
2018-07-13T16:25:30.752Z,35.00
2018-07-13T16:28:00.516Z,35.10
2018-07-13T16:30:32.162Z,35.20
2018-07-13T16:33:01.159Z,35.10
2018-07-13T16:35:30.268Z,35.10
2018-07-13T16:37:59.843Z,35.10
2018-07-13T16:40:29.354Z,35.10
2018-07-13T16:42:59.190Z,34.90
2018-07-13T16:47:58.891Z,34.60
2018-07-13T16:50:27.178Z,34.60
2018-07-13T16:52:55.403Z,34.60
2018-07-13T16:55:24.551Z,34.40
2018-07-13T16:57:53.418Z,34.30
2018-07-13T17:00:21.686Z,34.20
2018-07-13T17:02:50.593Z,34.20
2018-07-13T17:05:18.928Z,34.10
2018-07-13T17:07:48.567Z,34.00
2018-07-13T17:10:18.234Z,34.00
2018-07-13T17:12:48.050Z,33.90
2018-07-13T17:15:19.120Z,33.70
2018-07-13T17:17:49.320Z,33.60
2018-07-13T17:20:19.900Z,33.60
2018-07-13T17:22:48.574Z,33.50
2018-07-13T17:25:19.023Z,33.40
2018-07-13T17:27:48.430Z,33.30
2018-07-13T17:30:17.376Z,33.10
2018-07-13T17:32:47.054Z,32.70
2018-07-13T17:35:15.926Z,32.80
2018-07-13T17:37:45.902Z,33.30
2018-07-13T17:40:16.831Z,34.20
2018-07-13T17:42:45.698Z,34.50
2018-07-13T17:45:16.074Z,34.00
2018-07-13T17:47:45.110Z,33.60
2018-07-13T17:50:13.895Z,33.10
2018-07-13T17:52:42.301Z,32.60
2018-07-13T17:55:11.373Z,32.20
2018-07-13T17:57:41.643Z,32.00
2018-07-13T18:00:10.647Z,32.00
2018-07-13T18:02:40.028Z,32.90
2018-07-13T18:05:08.445Z,34.30
2018-07-13T18:07:36.854Z,35.60
2018-07-13T18:10:05.253Z,36.50
2018-07-13T18:12:35.399Z,37.00
2018-07-13T18:15:04.531Z,37.50
2018-07-13T18:17:38.553Z,37.60
2018-07-13T18:20:07.085Z,36.60
2018-07-13T18:22:38.866Z,35.20
2018-07-13T18:25:08.735Z,34.10
2018-07-13T18:27:39.145Z,33.10
2018-07-13T18:30:10.343Z,32.50
2018-07-13T18:32:42.866Z,32.00
2018-07-13T18:35:12.060Z,31.40
2018-07-13T18:37:42.536Z,30.80
2018-07-13T18:40:12.926Z,30.30
2018-07-13T18:42:42.583Z,30.00
2018-07-13T18:45:12.442Z,29.80
2018-07-13T18:47:40.719Z,29.50
2018-07-13T18:50:10.391Z,29.20
2018-07-13T18:52:38.615Z,29.00
2018-07-13T18:55:08.653Z,28.70
2018-07-13T18:57:37.822Z,28.50
2018-07-13T19:00:06.160Z,28.30
2018-07-13T19:02:36.076Z,28.20
2018-07-13T19:05:04.771Z,28.10
2018-07-13T19:07:33.839Z,27.90
2018-07-13T19:12:31.705Z,27.60
2018-07-13T19:15:01.101Z,27.50
2018-07-13T19:17:32.749Z,27.40
2018-07-13T19:20:01.919Z,27.30
2018-07-13T19:22:31.384Z,27.20
2018-07-13T19:24:59.837Z,27.00
2018-07-13T19:27:29.577Z,26.90
2018-07-13T19:29:58.871Z,26.80
2018-07-13T19:32:27.103Z,26.70
2018-07-13T19:34:58.065Z,26.60
2018-07-13T19:37:28.267Z,26.50
2018-07-13T19:39:57.186Z,26.50
2018-07-13T19:42:26.741Z,26.40
2018-07-13T19:44:55.510Z,26.20
2018-07-13T19:49:54.561Z,26.00
2018-07-13T19:52:25.054Z,25.90
2018-07-13T19:54:55.456Z,25.80
2018-07-13T19:57:25.740Z,25.70
2018-07-13T19:59:57.761Z,25.70
2018-07-13T20:02:26.790Z,25.60
2018-07-13T20:04:55.250Z,25.50
2018-07-13T20:07:26.420Z,25.40
2018-07-13T20:09:55.197Z,25.40
2018-07-13T20:12:23.516Z,25.20
2018-07-13T20:14:52.986Z,25.10
2018-07-13T20:17:22.042Z,25.10
2018-07-13T20:19:51.115Z,25.00
2018-07-13T20:22:20.710Z,24.90
2018-07-13T20:24:50.091Z,24.80
2018-07-13T20:27:20.090Z,24.70
2018-07-13T20:29:48.585Z,24.60
2018-07-13T20:32:21.201Z,24.50
2018-07-13T20:34:52.046Z,24.40
2018-07-13T20:39:49.391Z,24.30
2018-07-13T20:42:21.971Z,24.20
2018-07-13T20:44:51.130Z,24.20
2018-07-13T20:47:21.833Z,24.10
2018-07-13T20:49:50.664Z,24.10
2018-07-13T20:52:19.354Z,24.00
2018-07-13T20:54:49.722Z,24.00
2018-07-13T20:57:19.679Z,24.00
2018-07-13T21:02:18.188Z,23.90
2018-07-13T21:07:20.682Z,23.70
2018-07-13T21:12:18.183Z,23.60
2018-07-13T21:14:46.961Z,23.60
2018-07-13T21:17:15.710Z,23.50
2018-07-13T21:19:48.456Z,23.40
2018-07-13T21:22:16.866Z,23.40
2018-07-13T21:24:45.114Z,23.30
2018-07-13T21:27:13.813Z,23.30
2018-07-13T21:29:42.918Z,23.20
2018-07-13T21:32:13.507Z,23.20
2018-07-13T21:34:42.716Z,23.10
2018-07-13T21:37:10.959Z,23.00
2018-07-13T21:39:42.288Z,23.00
2018-07-13T21:42:10.651Z,22.90
2018-07-13T21:44:39.559Z,22.90
2018-07-13T21:47:08.679Z,22.80
2018-07-13T21:49:38.786Z,22.80
2018-07-13T21:52:11.997Z,22.70
2018-07-13T21:54:40.841Z,22.70
2018-07-13T21:57:10.459Z,22.60
2018-07-13T21:59:40.198Z,22.60
2018-07-13T22:02:08.813Z,22.50
2018-07-13T22:04:37.494Z,22.50
2018-07-13T22:07:07.140Z,22.40
2018-07-13T22:09:36.517Z,22.40
2018-07-13T22:12:05.075Z,22.30
2018-07-13T22:14:33.416Z,22.30
2018-07-13T22:17:03.388Z,22.30
2018-07-13T22:19:33.097Z,22.20
2018-07-13T22:22:01.653Z,22.10
2018-07-13T22:24:31.491Z,22.10
2018-07-13T22:27:02.397Z,22.00
2018-07-13T22:29:31.696Z,22.00
2018-07-13T22:32:02.219Z,21.90
2018-07-13T22:34:31.775Z,21.80
2018-07-13T22:37:00.801Z,21.80
2018-07-13T22:39:29.854Z,21.70
2018-07-13T22:42:00.087Z,21.60
2018-07-13T22:44:29.748Z,21.60
2018-07-13T22:47:00.090Z,21.50
2018-07-13T22:49:29.335Z,21.50
2018-07-13T22:51:59.263Z,21.50
2018-07-13T22:54:28.966Z,21.40
2018-07-13T22:56:58.187Z,21.40
2018-07-13T22:59:27.327Z,21.30
2018-07-13T23:01:56.043Z,21.30
2018-07-13T23:04:30.642Z,21.30
2018-07-13T23:07:00.013Z,21.20
2018-07-13T23:09:29.799Z,21.10
2018-07-13T23:12:02.169Z,21.10
2018-07-13T23:14:35.068Z,21.00
2018-07-13T23:17:08.899Z,20.90
2018-07-13T23:19:38.547Z,20.90
2018-07-13T23:22:10.783Z,20.90
2018-07-13T23:24:40.286Z,20.80
2018-07-13T23:27:16.877Z,20.80
2018-07-13T23:29:47.855Z,20.80
2018-07-13T23:32:18.963Z,20.70
2018-07-13T23:34:50.172Z,20.70
2018-07-13T23:37:21.378Z,20.60
2018-07-13T23:39:50.744Z,20.60
2018-07-13T23:42:20.922Z,20.50
2018-07-13T23:44:50.049Z,20.50
2018-07-13T23:47:20.107Z,20.40
2018-07-13T23:49:51.219Z,20.30
2018-07-13T23:52:22.680Z,20.30
2018-07-13T23:54:53.316Z,20.30
2018-07-13T23:57:25.020Z,20.20
2018-07-13T23:59:54.627Z,20.20
